sensor_id;sensor_type;location;lat;lon;timestamp;P1;durP1;ratioP1;P2;durP2;ratioP2
20865;SDS011;10593;48.398;10.698;2023-08-06T00:00:41;1.33;;;1.27;;
20865;SDS011;10593;48.398;10.698;2023-08-06T00:03:07;1.53;;;1.43;;
20865;SDS011;10593;48.398;10.698;2023-08-06T00:05:32;1.37;;;1.30;;
20865;SDS011;10593;48.398;10.698;2023-08-06T00:07:58;1.40;;;1.37;;
20865;SDS011;10593;48.398;10.698;2023-08-06T00:10:24;1.60;;;1.50;;
20865;SDS011;10593;48.398;10.698;2023-08-06T00:12:49;1.20;;;1.20;;
20865;SDS011;10593;48.398;10.698;2023-08-06T00:15:15;1.43;;;1.30;;
20865;SDS011;10593;48.398;10.698;2023-08-06T00:17:41;1.50;;;1.40;;
20865;SDS011;10593;48.398;10.698;2023-08-06T00:20:07;1.40;;;1.30;;
20865;SDS011;10593;48.398;10.698;2023-08-06T00:22:35;1.17;;;1.17;;
20865;SDS011;10593;48.398;10.698;2023-08-06T00:25:03;1.37;;;1.27;;
20865;SDS011;10593;48.398;10.698;2023-08-06T00:27:30;1.40;;;1.40;;
20865;SDS011;10593;48.398;10.698;2023-08-06T00:29:57;1.20;;;1.20;;
20865;SDS011;10593;48.398;10.698;2023-08-06T00:32:23;1.43;;;1.33;;
20865;SDS011;10593;48.398;10.698;2023-08-06T00:34:49;1.20;;;1.20;;
20865;SDS011;10593;48.398;10.698;2023-08-06T00:37:18;1.60;;;1.50;;
20865;SDS011;10593;48.398;10.698;2023-08-06T00:39:44;1.43;;;1.33;;
20865;SDS011;10593;48.398;10.698;2023-08-06T00:42:11;1.63;;;1.47;;
20865;SDS011;10593;48.398;10.698;2023-08-06T00:44:37;1.47;;;1.40;;
20865;SDS011;10593;48.398;10.698;2023-08-06T00:47:03;1.30;;;1.30;;
20865;SDS011;10593;48.398;10.698;2023-08-06T00:49:31;1.40;;;1.40;;
20865;SDS011;10593;48.398;10.698;2023-08-06T00:51:56;1.57;;;1.47;;
20865;SDS011;10593;48.398;10.698;2023-08-06T00:54:23;1.60;;;1.50;;
20865;SDS011;10593;48.398;10.698;2023-08-06T00:56:50;1.40;;;1.30;;
20865;SDS011;10593;48.398;10.698;2023-08-06T00:59:16;1.63;;;1.53;;
20865;SDS011;10593;48.398;10.698;2023-08-06T01:01:42;1.67;;;1.57;;
20865;SDS011;10593;48.398;10.698;2023-08-06T01:04:10;1.53;;;1.50;;
20865;SDS011;10593;48.398;10.698;2023-08-06T01:12:27;1.53;;;1.43;;
20865;SDS011;10593;48.398;10.698;2023-08-06T01:15:29;1.47;;;1.37;;
20865;SDS011;10593;48.398;10.698;2023-08-06T01:18:07;1.90;;;1.80;;
20865;SDS011;10593;48.398;10.698;2023-08-06T01:20:34;2.60;;;2.40;;
20865;SDS011;10593;48.398;10.698;2023-08-06T01:23:00;1.70;;;1.60;;
20865;SDS011;10593;48.398;10.698;2023-08-06T01:25:27;1.93;;;1.80;;
20865;SDS011;10593;48.398;10.698;2023-08-06T01:28:01;1.77;;;1.67;;
20865;SDS011;10593;48.398;10.698;2023-08-06T01:30:41;1.70;;;1.60;;
20865;SDS011;10593;48.398;10.698;2023-08-06T01:33:09;2.17;;;1.70;;
20865;SDS011;10593;48.398;10.698;2023-08-06T01:35:44;1.57;;;1.47;;
20865;SDS011;10593;48.398;10.698;2023-08-06T01:38:11;1.77;;;1.67;;
20865;SDS011;10593;48.398;10.698;2023-08-06T01:40:37;1.63;;;1.53;;
20865;SDS011;10593;48.398;10.698;2023-08-06T01:43:03;1.77;;;1.60;;
20865;SDS011;10593;48.398;10.698;2023-08-06T01:45:31;1.63;;;1.53;;
20865;SDS011;10593;48.398;10.698;2023-08-06T01:47:56;1.60;;;1.50;;
20865;SDS011;10593;48.398;10.698;2023-08-06T01:50:22;1.50;;;1.40;;
20865;SDS011;10593;48.398;10.698;2023-08-06T01:52:47;1.27;;;1.27;;
20865;SDS011;10593;48.398;10.698;2023-08-06T01:55:15;1.73;;;1.63;;
20865;SDS011;10593;48.398;10.698;2023-08-06T01:57:40;1.47;;;1.40;;
20865;SDS011;10593;48.398;10.698;2023-08-06T02:00:06;2.57;;;1.77;;
20865;SDS011;10593;48.398;10.698;2023-08-06T02:02:32;1.70;;;1.60;;
20865;SDS011;10593;48.398;10.698;2023-08-06T02:04:59;1.13;;;1.13;;
20865;SDS011;10593;48.398;10.698;2023-08-06T02:07:25;1.77;;;1.50;;
20865;SDS011;10593;48.398;10.698;2023-08-06T02:09:50;1.47;;;1.37;;
20865;SDS011;10593;48.398;10.698;2023-08-06T02:12:16;1.60;;;1.50;;
20865;SDS011;10593;48.398;10.698;2023-08-06T02:14:41;1.63;;;1.53;;
20865;SDS011;10593;48.398;10.698;2023-08-06T02:17:07;1.60;;;1.50;;
20865;SDS011;10593;48.398;10.698;2023-08-06T02:19:33;1.23;;;1.23;;
20865;SDS011;10593;48.398;10.698;2023-08-06T02:21:58;1.40;;;1.30;;
20865;SDS011;10593;48.398;10.698;2023-08-06T02:24:24;1.60;;;1.50;;
20865;SDS011;10593;48.398;10.698;2023-08-06T02:26:50;1.50;;;1.50;;
20865;SDS011;10593;48.398;10.698;2023-08-06T02:29:17;1.67;;;1.57;;
20865;SDS011;10593;48.398;10.698;2023-08-06T02:31:43;1.60;;;1.50;;
20865;SDS011;10593;48.398;10.698;2023-08-06T02:34:09;1.60;;;1.50;;
20865;SDS011;10593;48.398;10.698;2023-08-06T02:36:36;1.33;;;1.33;;
20865;SDS011;10593;48.398;10.698;2023-08-06T02:39:02;23.73;;;2.87;;
20865;SDS011;10593;48.398;10.698;2023-08-06T02:41:27;2.43;;;1.70;;
20865;SDS011;10593;48.398;10.698;2023-08-06T02:43:53;1.50;;;1.40;;
20865;SDS011;10593;48.398;10.698;2023-08-06T02:46:19;1.60;;;1.50;;
20865;SDS011;10593;48.398;10.698;2023-08-06T02:48:44;1.60;;;1.50;;
20865;SDS011;10593;48.398;10.698;2023-08-06T02:51:10;1.60;;;1.17;;
20865;SDS011;10593;48.398;10.698;2023-08-06T02:53:36;1.50;;;1.40;;
20865;SDS011;10593;48.398;10.698;2023-08-06T02:56:01;1.33;;;1.30;;
20865;SDS011;10593;48.398;10.698;2023-08-06T02:58:27;1.80;;;1.70;;
20865;SDS011;10593;48.398;10.698;2023-08-06T03:01:00;1.60;;;1.50;;
20865;SDS011;10593;48.398;10.698;2023-08-06T03:03:28;1.50;;;1.40;;
20865;SDS011;10593;48.398;10.698;2023-08-06T03:05:55;1.37;;;1.33;;
20865;SDS011;10593;48.398;10.698;2023-08-06T03:08:21;1.60;;;1.50;;
20865;SDS011;10593;48.398;10.698;2023-08-06T03:10:48;1.23;;;1.23;;
20865;SDS011;10593;48.398;10.698;2023-08-06T03:13:15;1.50;;;1.40;;
20865;SDS011;10593;48.398;10.698;2023-08-06T03:15:54;1.47;;;1.37;;
20865;SDS011;10593;48.398;10.698;2023-08-06T03:18:22;1.57;;;1.40;;
20865;SDS011;10593;48.398;10.698;2023-08-06T03:20:48;2.07;;;1.40;;
20865;SDS011;10593;48.398;10.698;2023-08-06T03:23:14;1.57;;;1.47;;
20865;SDS011;10593;48.398;10.698;2023-08-06T03:25:40;1.43;;;1.37;;
20865;SDS011;10593;48.398;10.698;2023-08-06T03:28:06;1.07;;;1.07;;
20865;SDS011;10593;48.398;10.698;2023-08-06T03:30:32;0.97;;;0.97;;
20865;SDS011;10593;48.398;10.698;2023-08-06T03:32:57;1.40;;;1.30;;
20865;SDS011;10593;48.398;10.698;2023-08-06T03:35:23;1.33;;;1.23;;
20865;SDS011;10593;48.398;10.698;2023-08-06T03:37:48;1.20;;;1.20;;
20865;SDS011;10593;48.398;10.698;2023-08-06T03:40:14;1.33;;;1.30;;
20865;SDS011;10593;48.398;10.698;2023-08-06T03:42:40;1.50;;;1.40;;
20865;SDS011;10593;48.398;10.698;2023-08-06T03:45:06;1.30;;;1.20;;
20865;SDS011;10593;48.398;10.698;2023-08-06T03:47:33;1.50;;;1.40;;
20865;SDS011;10593;48.398;10.698;2023-08-06T03:49:58;1.70;;;1.60;;
20865;SDS011;10593;48.398;10.698;2023-08-06T03:52:24;1.53;;;1.43;;
20865;SDS011;10593;48.398;10.698;2023-08-06T03:54:49;1.40;;;1.30;;
20865;SDS011;10593;48.398;10.698;2023-08-06T03:57:15;1.50;;;1.40;;
20865;SDS011;10593;48.398;10.698;2023-08-06T03:59:41;1.20;;;1.20;;
20865;SDS011;10593;48.398;10.698;2023-08-06T04:02:06;1.40;;;1.30;;
20865;SDS011;10593;48.398;10.698;2023-08-06T04:04:32;1.27;;;1.20;;
20865;SDS011;10593;48.398;10.698;2023-08-06T04:06:58;1.40;;;1.30;;
20865;SDS011;10593;48.398;10.698;2023-08-06T04:09:23;1.40;;;1.30;;
20865;SDS011;10593;48.398;10.698;2023-08-06T04:11:49;1.60;;;1.50;;
20865;SDS011;10593;48.398;10.698;2023-08-06T04:14:14;1.20;;;1.20;;
20865;SDS011;10593;48.398;10.698;2023-08-06T04:16:40;1.30;;;1.20;;
20865;SDS011;10593;48.398;10.698;2023-08-06T04:19:06;1.23;;;1.13;;
20865;SDS011;10593;48.398;10.698;2023-08-06T04:21:31;1.40;;;1.30;;
20865;SDS011;10593;48.398;10.698;2023-08-06T04:23:57;1.20;;;1.20;;
20865;SDS011;10593;48.398;10.698;2023-08-06T04:26:23;2.00;;;1.43;;
20865;SDS011;10593;48.398;10.698;2023-08-06T04:28:48;1.80;;;1.30;;
20865;SDS011;10593;48.398;10.698;2023-08-06T04:31:14;3.07;;;1.60;;
20865;SDS011;10593;48.398;10.698;2023-08-06T04:33:40;1.40;;;1.33;;
20865;SDS011;10593;48.398;10.698;2023-08-06T04:36:06;1.27;;;1.20;;
20865;SDS011;10593;48.398;10.698;2023-08-06T04:38:32;1.73;;;1.60;;
20865;SDS011;10593;48.398;10.698;2023-08-06T04:40:57;1.77;;;1.40;;
20865;SDS011;10593;48.398;10.698;2023-08-06T04:43:23;1.50;;;1.40;;
20865;SDS011;10593;48.398;10.698;2023-08-06T04:45:50;1.10;;;1.10;;
20865;SDS011;10593;48.398;10.698;2023-08-06T04:48:19;1.10;;;1.10;;
20865;SDS011;10593;48.398;10.698;2023-08-06T04:50:48;1.53;;;1.43;;
20865;SDS011;10593;48.398;10.698;2023-08-06T04:53:15;1.90;;;1.80;;
20865;SDS011;10593;48.398;10.698;2023-08-06T04:55:41;1.83;;;1.40;;
20865;SDS011;10593;48.398;10.698;2023-08-06T04:58:09;1.10;;;1.10;;
20865;SDS011;10593;48.398;10.698;2023-08-06T05:00:35;1.50;;;1.40;;
20865;SDS011;10593;48.398;10.698;2023-08-06T05:03:01;1.80;;;1.30;;
20865;SDS011;10593;48.398;10.698;2023-08-06T05:05:27;1.47;;;1.37;;
20865;SDS011;10593;48.398;10.698;2023-08-06T05:07:54;1.20;;;1.20;;
20865;SDS011;10593;48.398;10.698;2023-08-06T05:10:24;1.33;;;1.10;;
20865;SDS011;10593;48.398;10.698;2023-08-06T05:12:51;1.33;;;1.23;;
20865;SDS011;10593;48.398;10.698;2023-08-06T05:15:17;1.50;;;1.40;;
20865;SDS011;10593;48.398;10.698;2023-08-06T05:17:43;1.30;;;1.20;;
20865;SDS011;10593;48.398;10.698;2023-08-06T05:20:09;1.40;;;1.30;;
20865;SDS011;10593;48.398;10.698;2023-08-06T05:22:36;2.07;;;1.10;;
20865;SDS011;10593;48.398;10.698;2023-08-06T05:25:01;1.60;;;1.33;;
20865;SDS011;10593;48.398;10.698;2023-08-06T05:27:28;1.10;;;1.10;;
20865;SDS011;10593;48.398;10.698;2023-08-06T05:29:54;1.23;;;1.13;;
20865;SDS011;10593;48.398;10.698;2023-08-06T05:32:23;1.27;;;1.17;;
20865;SDS011;10593;48.398;10.698;2023-08-06T05:34:49;1.30;;;1.20;;
20865;SDS011;10593;48.398;10.698;2023-08-06T05:37:15;1.23;;;1.13;;
20865;SDS011;10593;48.398;10.698;2023-08-06T05:39:40;47.27;;;4.27;;
20865;SDS011;10593;48.398;10.698;2023-08-06T05:42:07;2.27;;;1.50;;
20865;SDS011;10593;48.398;10.698;2023-08-06T05:44:33;2.10;;;1.10;;
20865;SDS011;10593;48.398;10.698;2023-08-06T05:46:59;1.27;;;1.07;;
20865;SDS011;10593;48.398;10.698;2023-08-06T05:49:25;1.20;;;1.20;;
20865;SDS011;10593;48.398;10.698;2023-08-06T05:51:50;1.60;;;1.23;;
20865;SDS011;10593;48.398;10.698;2023-08-06T05:54:21;1.03;;;1.03;;
20865;SDS011;10593;48.398;10.698;2023-08-06T05:56:47;0.90;;;0.90;;
20865;SDS011;10593;48.398;10.698;2023-08-06T05:59:13;1.23;;;1.17;;
20865;SDS011;10593;48.398;10.698;2023-08-06T06:01:38;1.23;;;1.13;;
20865;SDS011;10593;48.398;10.698;2023-08-06T06:04:05;1.03;;;1.03;;
20865;SDS011;10593;48.398;10.698;2023-08-06T06:06:31;0.97;;;0.97;;
20865;SDS011;10593;48.398;10.698;2023-08-06T06:08:57;1.23;;;1.00;;
20865;SDS011;10593;48.398;10.698;2023-08-06T06:11:23;1.63;;;1.20;;
20865;SDS011;10593;48.398;10.698;2023-08-06T06:13:50;1.23;;;1.13;;
20865;SDS011;10593;48.398;10.698;2023-08-06T06:16:16;1.00;;;1.00;;
20865;SDS011;10593;48.398;10.698;2023-08-06T06:18:43;1.27;;;1.17;;
20865;SDS011;10593;48.398;10.698;2023-08-06T06:21:09;1.03;;;0.93;;
20865;SDS011;10593;48.398;10.698;2023-08-06T06:23:36;1.30;;;1.10;;
20865;SDS011;10593;48.398;10.698;2023-08-06T06:28:37;0.83;;;0.83;;
20865;SDS011;10593;48.398;10.698;2023-08-06T06:31:02;0.90;;;0.90;;
20865;SDS011;10593;48.398;10.698;2023-08-06T06:33:28;1.17;;;1.00;;
20865;SDS011;10593;48.398;10.698;2023-08-06T06:35:54;0.90;;;0.90;;
20865;SDS011;10593;48.398;10.698;2023-08-06T06:38:20;1.13;;;1.03;;
20865;SDS011;10593;48.398;10.698;2023-08-06T06:40:55;1.00;;;1.00;;
20865;SDS011;10593;48.398;10.698;2023-08-06T06:43:22;0.80;;;0.80;;
20865;SDS011;10593;48.398;10.698;2023-08-06T06:45:56;0.90;;;0.90;;
20865;SDS011;10593;48.398;10.698;2023-08-06T06:48:24;0.90;;;0.90;;
20865;SDS011;10593;48.398;10.698;2023-08-06T06:50:52;1.10;;;1.00;;
20865;SDS011;10593;48.398;10.698;2023-08-06T06:53:17;1.13;;;0.83;;
20865;SDS011;10593;48.398;10.698;2023-08-06T06:55:43;0.97;;;0.77;;
20865;SDS011;10593;48.398;10.698;2023-08-06T07:00:58;0.80;;;0.80;;
20865;SDS011;10593;48.398;10.698;2023-08-06T07:03:24;0.73;;;0.73;;
20865;SDS011;10593;48.398;10.698;2023-08-06T07:05:56;1.73;;;0.93;;
20865;SDS011;10593;48.398;10.698;2023-08-06T07:08:24;0.90;;;0.90;;
20865;SDS011;10593;48.398;10.698;2023-08-06T07:10:50;0.60;;;0.60;;
20865;SDS011;10593;48.398;10.698;2023-08-06T07:13:25;0.77;;;0.77;;
20865;SDS011;10593;48.398;10.698;2023-08-06T07:15:51;1.03;;;0.93;;
20865;SDS011;10593;48.398;10.698;2023-08-06T07:18:17;1.07;;;0.83;;
20865;SDS011;10593;48.398;10.698;2023-08-06T07:20:47;1.10;;;0.70;;
20865;SDS011;10593;48.398;10.698;2023-08-06T07:23:14;0.80;;;0.80;;
20865;SDS011;10593;48.398;10.698;2023-08-06T07:28:23;0.70;;;0.63;;
20865;SDS011;10593;48.398;10.698;2023-08-06T07:33:25;0.73;;;0.73;;
20865;SDS011;10593;48.398;10.698;2023-08-06T07:35:53;0.60;;;0.60;;
20865;SDS011;10593;48.398;10.698;2023-08-06T07:38:20;0.80;;;0.60;;
20865;SDS011;10593;48.398;10.698;2023-08-06T07:40:46;0.90;;;0.60;;
20865;SDS011;10593;48.398;10.698;2023-08-06T07:43:12;0.73;;;0.60;;
20865;SDS011;10593;48.398;10.698;2023-08-06T07:45:38;1.33;;;0.70;;
20865;SDS011;10593;48.398;10.698;2023-08-06T07:48:03;0.80;;;0.60;;
20865;SDS011;10593;48.398;10.698;2023-08-06T07:50:30;0.40;;;0.40;;
20865;SDS011;10593;48.398;10.698;2023-08-06T07:52:56;3.00;;;0.57;;
20865;SDS011;10593;48.398;10.698;2023-08-06T07:55:22;2.10;;;0.60;;
20865;SDS011;10593;48.398;10.698;2023-08-06T07:57:49;0.47;;;0.47;;
20865;SDS011;10593;48.398;10.698;2023-08-06T08:00:15;0.63;;;0.53;;
20865;SDS011;10593;48.398;10.698;2023-08-06T08:02:40;0.67;;;0.43;;
20865;SDS011;10593;48.398;10.698;2023-08-06T08:05:06;0.40;;;0.40;;
20865;SDS011;10593;48.398;10.698;2023-08-06T08:07:33;0.53;;;0.43;;
20865;SDS011;10593;48.398;10.698;2023-08-06T08:10:00;0.60;;;0.47;;
20865;SDS011;10593;48.398;10.698;2023-08-06T08:12:26;1.13;;;0.60;;
20865;SDS011;10593;48.398;10.698;2023-08-06T08:14:51;0.60;;;0.60;;
20865;SDS011;10593;48.398;10.698;2023-08-06T08:17:19;0.50;;;0.50;;
20865;SDS011;10593;48.398;10.698;2023-08-06T08:19:45;0.40;;;0.40;;
20865;SDS011;10593;48.398;10.698;2023-08-06T08:22:11;0.43;;;0.43;;
20865;SDS011;10593;48.398;10.698;2023-08-06T08:24:37;1.07;;;0.53;;
20865;SDS011;10593;48.398;10.698;2023-08-06T08:27:02;1.10;;;0.73;;
20865;SDS011;10593;48.398;10.698;2023-08-06T08:29:28;0.50;;;0.50;;
20865;SDS011;10593;48.398;10.698;2023-08-06T08:31:54;0.40;;;0.30;;
20865;SDS011;10593;48.398;10.698;2023-08-06T08:34:20;0.50;;;0.50;;
20865;SDS011;10593;48.398;10.698;2023-08-06T08:36:48;0.43;;;0.20;;
20865;SDS011;10593;48.398;10.698;2023-08-06T08:39:15;0.67;;;0.60;;
20865;SDS011;10593;48.398;10.698;2023-08-06T08:41:41;0.33;;;0.27;;
20865;SDS011;10593;48.398;10.698;2023-08-06T08:44:10;0.20;;;0.20;;
20865;SDS011;10593;48.398;10.698;2023-08-06T08:46:41;0.30;;;0.27;;
20865;SDS011;10593;48.398;10.698;2023-08-06T08:49:08;0.80;;;0.30;;
20865;SDS011;10593;48.398;10.698;2023-08-06T08:51:35;1.17;;;0.50;;
20865;SDS011;10593;48.398;10.698;2023-08-06T08:54:05;0.33;;;0.33;;
20865;SDS011;10593;48.398;10.698;2023-08-06T08:56:33;0.67;;;0.57;;
20865;SDS011;10593;48.398;10.698;2023-08-06T08:59:01;1.57;;;0.50;;
20865;SDS011;10593;48.398;10.698;2023-08-06T09:01:27;0.97;;;0.50;;
20865;SDS011;10593;48.398;10.698;2023-08-06T09:03:54;0.83;;;0.43;;
20865;SDS011;10593;48.398;10.698;2023-08-06T09:06:25;1.90;;;0.57;;
20865;SDS011;10593;48.398;10.698;2023-08-06T09:08:56;1.70;;;0.50;;
20865;SDS011;10593;48.398;10.698;2023-08-06T09:11:39;0.67;;;0.40;;
20865;SDS011;10593;48.398;10.698;2023-08-06T09:14:13;0.10;;;0.10;;
20865;SDS011;10593;48.398;10.698;2023-08-06T09:16:40;1.13;;;0.40;;
20865;SDS011;10593;48.398;10.698;2023-08-06T09:19:08;0.63;;;0.30;;
20865;SDS011;10593;48.398;10.698;2023-08-06T09:21:43;0.40;;;0.40;;
20865;SDS011;10593;48.398;10.698;2023-08-06T09:24:13;1.07;;;0.20;;
20865;SDS011;10593;48.398;10.698;2023-08-06T09:26:40;0.20;;;0.20;;
20865;SDS011;10593;48.398;10.698;2023-08-06T09:29:09;0.37;;;0.23;;
20865;SDS011;10593;48.398;10.698;2023-08-06T09:31:43;0.20;;;0.20;;
20865;SDS011;10593;48.398;10.698;2023-08-06T09:34:21;0.73;;;0.40;;
20865;SDS011;10593;48.398;10.698;2023-08-06T09:36:48;0.57;;;0.40;;
20865;SDS011;10593;48.398;10.698;2023-08-06T09:39:19;0.20;;;0.17;;
20865;SDS011;10593;48.398;10.698;2023-08-06T09:41:48;0.80;;;0.13;;
20865;SDS011;10593;48.398;10.698;2023-08-06T09:44:21;0.20;;;0.20;;
20865;SDS011;10593;48.398;10.698;2023-08-06T09:46:51;1.40;;;0.30;;
20865;SDS011;10593;48.398;10.698;2023-08-06T09:49:19;0.20;;;0.20;;
20865;SDS011;10593;48.398;10.698;2023-08-06T09:51:57;1.50;;;0.20;;
20865;SDS011;10593;48.398;10.698;2023-08-06T09:54:25;0.30;;;0.20;;
20865;SDS011;10593;48.398;10.698;2023-08-06T09:56:53;0.73;;;0.27;;
20865;SDS011;10593;48.398;10.698;2023-08-06T09:59:19;1.23;;;0.20;;
20865;SDS011;10593;48.398;10.698;2023-08-06T10:01:47;0.43;;;0.10;;
20865;SDS011;10593;48.398;10.698;2023-08-06T10:04:14;0.17;;;0.17;;
20865;SDS011;10593;48.398;10.698;2023-08-06T10:06:46;0.63;;;0.30;;
20865;SDS011;10593;48.398;10.698;2023-08-06T10:09:14;0.70;;;0.30;;
20865;SDS011;10593;48.398;10.698;2023-08-06T10:11:39;0.17;;;0.13;;
20865;SDS011;10593;48.398;10.698;2023-08-06T10:14:12;0.57;;;0.10;;
20865;SDS011;10593;48.398;10.698;2023-08-06T10:16:46;1.17;;;0.30;;
20865;SDS011;10593;48.398;10.698;2023-08-06T10:19:12;0.87;;;0.30;;
20865;SDS011;10593;48.398;10.698;2023-08-06T10:22:05;0.17;;;0.17;;
20865;SDS011;10593;48.398;10.698;2023-08-06T10:24:54;0.17;;;0.10;;
20865;SDS011;10593;48.398;10.698;2023-08-06T10:27:32;0.13;;;0.10;;
20865;SDS011;10593;48.398;10.698;2023-08-06T10:33:00;0.33;;;0.20;;
20865;SDS011;10593;48.398;10.698;2023-08-06T10:38:15;1.30;;;0.30;;
20865;SDS011;10593;48.398;10.698;2023-08-06T10:45:52;0.90;;;0.17;;
20865;SDS011;10593;48.398;10.698;2023-08-06T10:48:55;0.17;;;0.17;;
20865;SDS011;10593;48.398;10.698;2023-08-06T10:51:14;0.30;;;0.20;;
20865;SDS011;10593;48.398;10.698;2023-08-06T10:53:47;0.77;;;0.33;;
20865;SDS011;10593;48.398;10.698;2023-08-06T10:56:15;0.13;;;0.13;;
20865;SDS011;10593;48.398;10.698;2023-08-06T10:58:49;0.20;;;0.20;;
20865;SDS011;10593;48.398;10.698;2023-08-06T11:01:16;0.10;;;0.10;;
20865;SDS011;10593;48.398;10.698;2023-08-06T11:03:43;0.10;;;0.10;;
20865;SDS011;10593;48.398;10.698;2023-08-06T11:06:16;0.13;;;0.13;;
20865;SDS011;10593;48.398;10.698;2023-08-06T11:08:54;0.20;;;0.20;;
20865;SDS011;10593;48.398;10.698;2023-08-06T11:11:20;0.10;;;0.10;;
20865;SDS011;10593;48.398;10.698;2023-08-06T11:13:49;0.30;;;0.23;;
20865;SDS011;10593;48.398;10.698;2023-08-06T11:16:22;0.13;;;0.13;;
20865;SDS011;10593;48.398;10.698;2023-08-06T11:18:51;0.77;;;0.20;;
20865;SDS011;10593;48.398;10.698;2023-08-06T11:21:20;1.20;;;0.40;;
20865;SDS011;10593;48.398;10.698;2023-08-06T11:23:46;0.43;;;0.13;;
20865;SDS011;10593;48.398;10.698;2023-08-06T11:26:12;0.10;;;0.10;;
20865;SDS011;10593;48.398;10.698;2023-08-06T11:28:43;0.17;;;0.10;;
20865;SDS011;10593;48.398;10.698;2023-08-06T11:31:18;0.00;;;0.00;;
20865;SDS011;10593;48.398;10.698;2023-08-06T11:33:50;0.03;;;0.03;;
20865;SDS011;10593;48.398;10.698;2023-08-06T11:36:32;0.20;;;0.10;;
20865;SDS011;10593;48.398;10.698;2023-08-06T11:39:01;0.10;;;0.10;;
20865;SDS011;10593;48.398;10.698;2023-08-06T11:41:30;0.00;;;0.00;;
20865;SDS011;10593;48.398;10.698;2023-08-06T11:43:57;0.10;;;0.10;;
20865;SDS011;10593;48.398;10.698;2023-08-06T11:46:24;0.00;;;0.00;;
20865;SDS011;10593;48.398;10.698;2023-08-06T11:48:54;0.10;;;0.00;;
20865;SDS011;10593;48.398;10.698;2023-08-06T11:51:22;0.10;;;0.03;;
20865;SDS011;10593;48.398;10.698;2023-08-06T11:53:51;0.00;;;0.00;;
20865;SDS011;10593;48.398;10.698;2023-08-06T11:56:21;0.20;;;0.10;;
20865;SDS011;10593;48.398;10.698;2023-08-06T11:58:47;0.40;;;0.20;;
20865;SDS011;10593;48.398;10.698;2023-08-06T12:01:13;0.00;;;0.00;;
20865;SDS011;10593;48.398;10.698;2023-08-06T12:03:40;0.03;;;0.03;;
20865;SDS011;10593;48.398;10.698;2023-08-06T12:06:08;0.10;;;0.10;;
20865;SDS011;10593;48.398;10.698;2023-08-06T12:08:42;0.10;;;0.10;;
20865;SDS011;10593;48.398;10.698;2023-08-06T12:11:09;0.30;;;0.00;;
20865;SDS011;10593;48.398;10.698;2023-08-06T12:13:34;0.00;;;0.00;;
20865;SDS011;10593;48.398;10.698;2023-08-06T12:16:00;0.00;;;0.00;;
20865;SDS011;10593;48.398;10.698;2023-08-06T12:18:26;0.00;;;0.00;;
20865;SDS011;10593;48.398;10.698;2023-08-06T12:20:51;0.30;;;0.00;;
20865;SDS011;10593;48.398;10.698;2023-08-06T12:23:17;0.20;;;0.00;;
20865;SDS011;10593;48.398;10.698;2023-08-06T12:25:43;0.67;;;0.07;;
20865;SDS011;10593;48.398;10.698;2023-08-06T12:30:46;0.77;;;0.07;;
20865;SDS011;10593;48.398;10.698;2023-08-06T12:33:13;0.10;;;0.10;;
20865;SDS011;10593;48.398;10.698;2023-08-06T12:35:39;0.20;;;0.20;;
20865;SDS011;10593;48.398;10.698;2023-08-06T12:38:04;0.03;;;0.00;;
20865;SDS011;10593;48.398;10.698;2023-08-06T12:40:30;0.07;;;0.07;;
20865;SDS011;10593;48.398;10.698;2023-08-06T12:42:56;0.13;;;0.10;;
20865;SDS011;10593;48.398;10.698;2023-08-06T12:45:23;0.10;;;0.00;;
20865;SDS011;10593;48.398;10.698;2023-08-06T12:47:52;0.00;;;0.00;;
20865;SDS011;10593;48.398;10.698;2023-08-06T12:50:18;0.00;;;0.00;;
20865;SDS011;10593;48.398;10.698;2023-08-06T12:52:44;0.10;;;0.10;;
20865;SDS011;10593;48.398;10.698;2023-08-06T12:55:10;0.10;;;0.10;;
20865;SDS011;10593;48.398;10.698;2023-08-06T12:57:35;0.20;;;0.10;;
20865;SDS011;10593;48.398;10.698;2023-08-06T13:00:01;0.63;;;0.30;;
20865;SDS011;10593;48.398;10.698;2023-08-06T13:02:31;0.33;;;0.33;;
20865;SDS011;10593;48.398;10.698;2023-08-06T13:04:56;0.10;;;0.10;;
20865;SDS011;10593;48.398;10.698;2023-08-06T13:07:22;0.87;;;0.10;;
20865;SDS011;10593;48.398;10.698;2023-08-06T13:09:48;0.20;;;0.10;;
20865;SDS011;10593;48.398;10.698;2023-08-06T13:12:14;0.20;;;0.20;;
20865;SDS011;10593;48.398;10.698;2023-08-06T13:14:41;0.00;;;0.00;;
20865;SDS011;10593;48.398;10.698;2023-08-06T13:17:06;0.10;;;0.10;;
20865;SDS011;10593;48.398;10.698;2023-08-06T13:19:33;0.10;;;0.07;;
20865;SDS011;10593;48.398;10.698;2023-08-06T13:22:00;0.00;;;0.00;;
20865;SDS011;10593;48.398;10.698;2023-08-06T13:24:29;0.10;;;0.10;;
20865;SDS011;10593;48.398;10.698;2023-08-06T13:26:55;0.00;;;0.00;;
20865;SDS011;10593;48.398;10.698;2023-08-06T13:29:20;0.00;;;0.00;;
20865;SDS011;10593;48.398;10.698;2023-08-06T13:31:46;0.00;;;0.00;;
20865;SDS011;10593;48.398;10.698;2023-08-06T13:34:12;0.10;;;0.10;;
20865;SDS011;10593;48.398;10.698;2023-08-06T13:36:37;0.10;;;0.10;;
20865;SDS011;10593;48.398;10.698;2023-08-06T13:39:03;0.10;;;0.00;;
20865;SDS011;10593;48.398;10.698;2023-08-06T13:41:30;0.10;;;0.10;;
20865;SDS011;10593;48.398;10.698;2023-08-06T13:43:56;0.20;;;0.00;;
20865;SDS011;10593;48.398;10.698;2023-08-06T13:46:21;0.47;;;0.10;;
20865;SDS011;10593;48.398;10.698;2023-08-06T13:48:47;0.10;;;0.10;;
20865;SDS011;10593;48.398;10.698;2023-08-06T13:51:16;0.03;;;0.03;;
20865;SDS011;10593;48.398;10.698;2023-08-06T13:53:44;0.17;;;0.10;;
20865;SDS011;10593;48.398;10.698;2023-08-06T13:56:10;0.10;;;0.10;;
20865;SDS011;10593;48.398;10.698;2023-08-06T13:58:36;0.10;;;0.10;;
20865;SDS011;10593;48.398;10.698;2023-08-06T14:01:05;0.53;;;0.30;;
20865;SDS011;10593;48.398;10.698;2023-08-06T14:03:31;1.03;;;0.37;;
20865;SDS011;10593;48.398;10.698;2023-08-06T14:05:56;0.20;;;0.10;;
20865;SDS011;10593;48.398;10.698;2023-08-06T14:08:25;0.00;;;0.00;;
20865;SDS011;10593;48.398;10.698;2023-08-06T14:10:51;0.57;;;0.00;;
20865;SDS011;10593;48.398;10.698;2023-08-06T14:13:17;0.10;;;0.10;;
20865;SDS011;10593;48.398;10.698;2023-08-06T14:15:43;0.40;;;0.10;;
20865;SDS011;10593;48.398;10.698;2023-08-06T14:18:11;0.97;;;0.30;;
20865;SDS011;10593;48.398;10.698;2023-08-06T14:20:42;0.30;;;0.30;;
20865;SDS011;10593;48.398;10.698;2023-08-06T14:23:08;0.30;;;0.30;;
20865;SDS011;10593;48.398;10.698;2023-08-06T14:25:35;0.50;;;0.50;;
20865;SDS011;10593;48.398;10.698;2023-08-06T14:28:02;0.50;;;0.50;;
20865;SDS011;10593;48.398;10.698;2023-08-06T14:30:28;0.87;;;0.50;;
20865;SDS011;10593;48.398;10.698;2023-08-06T14:32:54;0.40;;;0.20;;
20865;SDS011;10593;48.398;10.698;2023-08-06T14:35:20;1.50;;;0.20;;
20865;SDS011;10593;48.398;10.698;2023-08-06T14:37:48;0.30;;;0.30;;
20865;SDS011;10593;48.398;10.698;2023-08-06T14:40:14;0.17;;;0.17;;
20865;SDS011;10593;48.398;10.698;2023-08-06T14:42:40;1.03;;;0.30;;
20865;SDS011;10593;48.398;10.698;2023-08-06T14:45:05;0.30;;;0.30;;
20865;SDS011;10593;48.398;10.698;2023-08-06T14:47:34;0.27;;;0.20;;
20865;SDS011;10593;48.398;10.698;2023-08-06T14:50:00;0.53;;;0.40;;
20865;SDS011;10593;48.398;10.698;2023-08-06T14:52:26;0.67;;;0.30;;
20865;SDS011;10593;48.398;10.698;2023-08-06T14:54:51;0.20;;;0.20;;
20865;SDS011;10593;48.398;10.698;2023-08-06T14:57:20;0.30;;;0.30;;
20865;SDS011;10593;48.398;10.698;2023-08-06T14:59:52;0.30;;;0.30;;
20865;SDS011;10593;48.398;10.698;2023-08-06T15:02:22;1.17;;;0.20;;
20865;SDS011;10593;48.398;10.698;2023-08-06T15:04:47;0.50;;;0.47;;